Time;durP1;ratioP1;P1;durP2;ratioP2;P2;SDS_P1;SDS_P2;PMS_P1;PMS_P2;Temp;Humidity;BMP_temperature;BMP_pressure;BME280_temperature;BME280_humidity;BME280_pressure;Samples;Min_cycle;Max_cycle;Signal;HPM_P1;HPM_P2
2022/10/06 00:01:39;;;;;;;4.63;1.40;;;;;;;17.34;71.14;100418.41;10546937;28;20102;-74
2022/10/06 00:06:41;;;;;;;1.98;1.20;;;;;;;17.20;72.04;100413.00;10546869;28;20048;-74
2022/10/06 00:11:43;;;;;;;1.42;1.00;;;;;;;17.14;72.11;100416.84;10529856;28;20512;-74
2022/10/06 00:16:44;;;;;;;2.08;1.08;;;;;;;17.25;71.47;100419.78;10547476;28;20516;-74
2022/10/06 00:21:46;;;;;;;2.00;1.60;;;;;;;16.90;73.19;100424.28;10547294;28;20047;-74
2022/10/06 00:26:47;;;;;;;3.53;1.27;;;;;;;16.71;74.13;100423.47;10547286;28;20101;-75
2022/10/06 00:31:49;;;;;;;2.60;1.10;;;;;;;16.49;75.67;100426.34;10546552;28;20044;-74
2022/10/06 00:36:50;;;;;;;3.33;1.30;;;;;;;16.19;77.57;100420.75;10528639;28;20051;-74
2022/10/06 00:41:52;;;;;;;2.92;1.05;;;;;;;16.06;78.66;100415.19;10531049;28;20058;-74
2022/10/06 00:46:55;;;;;;;3.90;1.05;;;;;;;15.94;79.04;100414.00;10531887;28;20074;-74
2022/10/06 00:52:01;;;;;;;1.98;1.30;;;;;;;15.77;80.56;100413.94;10549201;28;20044;-74
2022/10/06 00:57:05;;;;;;;1.77;1.27;;;;;;;15.77;80.26;100404.19;10531788;28;20048;-74
2022/10/06 01:02:15;;;;;;;4.00;1.23;;;;;;;15.46;81.96;100411.84;10529792;28;20106;-74
2022/10/06 01:07:20;;;;;;;2.30;1.40;;;;;;;15.24;83.99;100409.28;10529280;28;20043;-74
2022/10/06 01:12:23;;;;;;;1.50;1.40;;;;;;;15.56;82.76;100411.31;10520013;28;20532;-74
2022/10/06 01:17:40;;;;;;;1.65;1.33;;;;;;;15.67;81.99;100417.94;10546264;28;20044;-74
2022/10/06 01:22:45;;;;;;;2.55;1.20;;;;;;;16.08;79.29;100414.19;10545218;28;20040;-74
2022/10/06 01:27:52;;;;;;;3.45;1.52;;;;;;;15.98;80.12;100412.03;10527016;28;20139;-74
2022/10/06 01:32:57;;;;;;;8.43;1.17;;;;;;;16.16;78.33;100411.19;10528453;28;20048;-74
2022/10/06 01:38:00;;;;;;;1.77;1.23;;;;;;;16.37;77.21;100419.84;10526017;28;20138;-74
2022/10/06 01:43:03;;;;;;;4.28;1.33;;;;;;;16.20;77.84;100425.97;10510501;28;20074;-74
2022/10/06 01:48:07;;;;;;;3.25;1.38;;;;;;;15.87;79.78;100428.47;10528182;28;20040;-74
2022/10/06 01:53:09;;;;;;;3.90;1.30;;;;;;;15.96;79.87;100419.22;10533498;28;20051;-74
2022/10/06 01:58:11;;;;;;;1.92;1.20;;;;;;;15.86;79.43;100435.56;10531675;28;20043;-75
2022/10/06 02:03:13;;;;;;;3.63;1.38;;;;;;;16.22;77.59;100436.53;10532635;28;20073;-74
2022/10/06 02:08:15;;;;;;;2.28;1.05;;;;;;;16.02;78.72;100446.28;10532753;28;20105;-74
2022/10/06 02:13:17;;;;;;;1.63;1.35;;;;;;;16.01;78.96;100446.38;10549506;28;20536;-74
2022/10/06 02:18:19;;;;;;;2.70;1.30;;;;;;;16.01;78.74;100457.84;10541067;28;20086;-74
2022/10/06 02:23:22;;;;;;;4.53;1.58;;;;;;;16.21;77.81;100456.91;10531430;28;20504;-74
2022/10/06 02:28:24;;;;;;;4.22;1.13;;;;;;;16.18;77.80;100467.66;10550950;28;20040;-74
2022/10/06 02:33:26;;;;;;;5.85;1.42;;;;;;;16.32;76.84;100472.28;10533963;28;20093;-74
2022/10/06 02:38:28;;;;;;;3.72;1.40;;;;;;;16.20;77.60;100473.72;10531033;28;20048;-74
2022/10/06 02:43:32;;;;;;;2.38;1.20;;;;;;;16.43;76.51;100482.41;10530222;28;20050;-74
2022/10/06 02:48:34;;;;;;;3.15;1.30;;;;;;;16.29;76.78;100483.03;10529561;28;20047;-74
2022/10/06 02:53:38;;;;;;;3.83;1.23;;;;;;;16.53;75.63;100467.72;10529718;28;20059;-74
2022/10/06 02:58:42;;;;;;;2.95;1.70;;;;;;;16.36;77.01;100464.09;10546777;28;20036;-74
2022/10/06 03:03:47;;;;;;;3.17;1.40;;;;;;;16.20;77.67;100473.72;10529317;28;20048;-74
2022/10/06 03:08:59;;;;;;;6.35;1.38;;;;;;;16.14;78.45;100492.59;10529745;28;20501;-74
2022/10/06 03:14:01;;;;;;;4.38;1.30;;;;;;;16.32;77.29;100498.81;10528438;28;20048;-74
2022/10/06 03:19:06;;;;;;;1.58;1.48;;;;;;;15.87;79.98;100505.34;10528832;28;20087;-74
2022/10/06 03:24:09;;;;;;;1.33;1.08;;;;;;;16.30;77.37;100503.34;10527839;28;20134;-74
2022/10/06 03:29:12;;;;;;;1.85;1.40;;;;;;;16.40;76.87;100520.53;10527402;28;20101;-74
2022/10/06 03:34:17;;;;;;;4.45;1.33;;;;;;;16.40;76.54;100520.53;10528435;28;20445;-75
2022/10/06 03:39:19;;;;;;;2.67;1.02;;;;;;;16.40;76.30;100521.38;10527846;28;20074;-74
2022/10/06 03:44:23;;;;;;;3.28;1.40;;;;;;;16.48;76.03;100529.00;10527523;28;20055;-74
2022/10/06 03:49:25;;;;;;;3.28;1.20;;;;;;;16.41;76.00;100532.84;10526843;28;20136;-74
2022/10/06 03:54:27;;;;;;;1.60;1.10;;;;;;;16.27;77.21;100540.63;10526946;28;20071;-74
2022/10/06 03:59:33;;;;;;;1.92;1.20;;;;;;;16.21;77.73;100556.84;10526255;28;20417;-74
2022/10/06 04:04:37;;;;;;;1.90;1.10;;;;;;;16.13;78.64;100555.38;10525110;28;20051;-75
2022/10/06 04:09:43;;;;;;;2.05;1.23;;;;;;;15.99;79.53;100565.78;10524852;28;20136;-75
2022/10/06 04:14:46;;;;;;;5.55;1.40;;;;;;;15.99;79.57;100572.88;10523536;28;20135;-74
2022/10/06 04:19:48;;;;;;;2.22;1.23;;;;;;;16.14;78.78;100569.50;10523903;28;20585;-75
2022/10/06 04:24:49;;;;;;;3.25;1.10;;;;;;;16.20;78.56;100578.97;10506668;28;20072;-74
2022/10/06 04:29:51;;;;;;;6.55;1.50;;;;;;;16.14;78.58;100582.78;10522512;28;20456;-75
2022/10/06 04:34:53;;;;;;;4.30;1.30;;;;;;;16.11;78.85;100590.84;10522428;28;20101;-75
2022/10/06 04:39:56;;;;;;;11.80;2.17;;;;;;;16.16;79.16;100588.88;10506133;28;20082;-76
2022/10/06 04:44:59;;;;;;;12.73;1.70;;;;;;;16.23;79.04;100590.28;10522073;28;20074;-76
2022/10/06 04:50:01;;;;;;;2.65;1.20;;;;;;;16.35;78.27;100595.03;10521975;28;20497;-76
2022/10/06 04:55:04;;;;;;;2.60;1.10;;;;;;;16.56;77.35;100595.84;10539842;28;20040;-76
2022/10/06 05:00:24;;;;;;;3.05;0.98;;;;;;;16.72;76.78;100613.66;10505492;28;20182;-76
2022/10/06 05:05:26;;;;;;;1.20;1.10;;;;;;;16.86;76.14;100622.72;10521737;28;20044;-75
2022/10/06 05:10:29;;;;;;;1.08;1.00;;;;;;;16.93;75.64;100647.19;10521708;28;20539;-74
2022/10/06 05:15:31;;;;;;;3.55;1.17;;;;;;;17.11;74.96;100651.59;10521554;28;20068;-75
2022/10/06 05:20:33;;;;;;;1.92;0.93;;;;;;;17.15;74.56;100661.16;10539409;28;20082;-75
2022/10/06 05:25:35;;;;;;;1.73;1.00;;;;;;;17.02;75.54;100670.63;10528129;28;20134;-74
2022/10/06 05:30:37;;;;;;;1.13;0.93;;;;;;;17.15;75.13;100671.75;10549009;28;20032;-74
2022/10/06 05:35:49;;;;;;;1.85;1.30;;;;;;;16.98;75.90;100676.19;10516437;28;20118;-75
2022/10/06 05:41:03;;;;;;;2.83;1.48;;;;;;;17.12;75.04;100700.28;10548253;28;20501;-75
2022/10/06 05:46:07;;;;;;;2.30;1.25;;;;;;;17.16;75.24;100701.84;10529942;28;20090;-74
2022/10/06 05:51:09;;;;;;;2.58;1.27;;;;;;;17.21;74.66;100715.75;10530085;28;20040;-75
2022/10/06 05:56:20;;;;;;;1.70;1.15;;;;;;;17.20;74.83;100735.31;10532892;28;20089;-74
2022/10/06 06:01:30;;;;;;;1.60;1.15;;;;;;;17.07;75.95;100740.34;10532888;28;20044;-75
2022/10/06 06:06:43;;;;;;;3.83;1.42;;;;;;;17.02;76.99;100747.66;10532782;28;20413;-74
2022/10/06 06:11:51;;;;;;;1.77;1.30;;;;;;;16.93;78.53;100763.19;10549128;28;20386;-73
2022/10/06 06:17:13;;;;;;;3.75;1.30;;;;;;;16.77;82.50;100781.59;10529511;28;20121;-74
2022/10/06 06:22:15;;;;;;;1.58;1.20;;;;;;;16.52;86.42;100800.41;10530206;28;20382;-74
2022/10/06 06:27:19;;;;;;;1.20;1.00;;;;;;;15.80;82.88;100843.22;10548773;28;20044;-74
2022/10/06 06:32:21;;;;;;;1.15;0.60;;;;;;;15.14;80.36;100870.47;10530860;28;20505;-73
2022/10/06 06:37:24;;;;;;;3.08;0.40;;;;;;;14.69;84.15;100904.75;10548875;28;20040;-73
2022/10/06 06:42:26;;;;;;;1.42;0.70;;;;;;;14.00;86.03;100925.53;10530280;28;20097;-74
2022/10/06 06:47:47;;;;;;;2.15;0.80;;;;;;;13.68;89.90;100954.72;10551833;28;20044;-75
2022/10/06 06:52:48;;;;;;;8.73;0.80;;;;;;;13.30;93.63;100962.84;10514416;28;20079;-74
2022/10/06 06:57:51;;;;;;;2.92;0.52;;;;;;;12.97;97.44;100964.63;10549373;28;20044;-74
2022/10/06 07:02:59;;;;;;;1.67;0.50;;;;;;;12.95;98.95;101005.16;10549696;28;20036;-74
2022/10/06 07:08:07;;;;;;;3.78;0.80;;;;;;;12.67;100.00;101024.31;10527242;28;20070;-73
2022/10/06 07:13:15;;;;;;;3.40;0.85;;;;;;;12.65;100.00;101028.75;10527006;28;21357;-74
2022/10/06 07:29:01;;;;;;;2.58;0.60;;;;;;;12.31;100.00;101045.38;10528289;28;20040;-74
2022/10/06 07:34:03;;;;;;;1.13;0.40;;;;;;;12.53;100.00;101056.31;10528457;28;20047;-75
2022/10/06 07:39:05;;;;;;;1.88;0.60;;;;;;;12.51;100.00;101079.19;10545660;28;20509;-75
2022/10/06 07:44:07;;;;;;;1.70;0.57;;;;;;;12.61;100.00;101082.47;10546161;28;20056;-74
2022/10/06 07:49:11;;;;;;;2.85;0.50;;;;;;;12.83;100.00;101091.63;10525171;28;20044;-75
2022/10/06 07:54:13;;;;;;;3.08;0.90;;;;;;;12.93;100.00;101088.78;10544904;28;20090;-74
2022/10/06 07:59:31;;;;;;;3.45;0.70;;;;;;;13.13;100.00;101105.84;10545359;28;20040;-74
2022/10/06 08:04:33;;;;;;;2.38;0.60;;;;;;;13.18;100.00;101113.63;10485912;28;20502;-74
2022/10/06 08:09:36;;;;;;;2.67;0.90;;;;;;;13.18;100.00;101111.00;10509801;28;20047;-74
2022/10/06 08:14:38;;;;;;;2.38;0.70;;;;;;;13.50;100.00;101120.78;10526330;28;20050;-75
2022/10/06 08:19:40;;;;;;;2.65;0.77;;;;;;;13.55;99.81;101108.31;10528164;28;20051;-74
2022/10/06 08:24:42;;;;;;;3.28;0.75;;;;;;;13.55;100.00;101123.28;10545174;28;20043;-75
2022/10/06 08:30:06;;;;;;;1.20;0.50;;;;;;;13.70;99.53;101122.88;10547572;28;20062;-75
2022/10/06 08:35:09;;;;;;;1.23;0.50;;;;;;;13.96;97.65;101138.00;10527093;28;20459;-74
2022/10/06 08:40:14;;;;;;;4.60;0.80;;;;;;;13.91;99.51;101147.84;10527970;28;20394;-74
2022/10/06 08:45:26;;;;;;;2.30;0.98;;;;;;;14.01;95.62;101137.88;10509316;28;20147;-74
2022/10/06 08:50:37;;;;;;;1.48;0.70;;;;;;;14.05;96.23;101143.03;10546314;28;20097;-75
2022/10/06 08:56:17;;;;;;;2.80;0.68;;;;;;;14.10;95.37;101159.63;10527383;28;20063;-75
2022/10/06 09:01:37;;;;;;;1.77;0.60;;;;;;;14.21;91.16;101163.72;10548677;28;20097;-74
2022/10/06 09:06:50;;;;;;;1.75;0.45;;;;;;;14.25;87.85;101173.31;10496225;28;20087;-74
2022/10/06 09:12:12;;;;;;;2.63;0.60;;;;;;;14.43;79.89;101171.91;10494203;28;20094;-74
2022/10/06 09:17:28;;;;;;;3.35;0.43;;;;;;;14.56;78.44;101173.31;10512712;28;20383;-74
2022/10/06 09:22:31;;;;;;;1.73;0.40;;;;;;;14.76;77.99;101186.81;10531950;28;20485;-74
2022/10/06 09:27:36;;;;;;;2.85;0.60;;;;;;;14.91;78.79;101180.16;10532287;28;20109;-74
2022/10/06 09:32:45;;;;;;;4.20;0.68;;;;;;;15.06;77.84;101192.06;10548363;28;20101;-74
2022/10/06 09:37:53;;;;;;;1.65;0.50;;;;;;;15.25;78.68;101195.00;10547656;28;20048;-74
2022/10/06 09:42:55;;;;;;;2.42;0.50;;;;;;;15.33;77.16;101201.78;10548246;28;20071;-74
2022/10/06 09:48:23;;;;;;;1.15;0.43;;;;;;;15.57;74.15;101193.91;10546675;28;20048;-74
2022/10/06 09:53:25;;;;;;;2.83;0.68;;;;;;;15.96;72.80;101199.66;10554670;28;20039;-74
2022/10/06 09:58:33;;;;;;;3.33;0.77;;;;;;;16.07;67.04;101199.25;10588350;28;20457;-74
2022/10/06 10:03:50;;;;;;;3.92;0.82;;;;;;;16.28;66.04;101208.22;10564925;22;20089;-70
2022/10/06 10:09:24;;;;;;;2.20;0.57;;;;;;;16.67;61.65;101218.28;10464208;28;20037;-72
2022/10/06 10:14:26;;;;;;;5.25;1.20;;;;;;;17.07;61.24;101221.16;10463445;28;20044;-72
2022/10/06 10:19:35;;;;;;;4.57;1.10;;;;;;;16.96;59.77;101234.00;10462549;28;20112;-71
2022/10/06 10:24:56;;;;;;;2.50;0.73;;;;;;;16.99;58.01;101231.19;10464650;28;20072;-71
2022/10/06 10:30:10;;;;;;;5.63;1.30;;;;;;;16.93;60.44;101236.75;10446047;28;20079;-73
2022/10/06 10:35:19;;;;;;;4.07;0.70;;;;;;;16.86;58.56;101240.56;10463561;28;20457;-72
2022/10/06 10:40:33;;;;;;;4.78;0.90;;;;;;;16.50;61.90;101245.47;10463238;28;20452;-73
2022/10/06 10:45:40;;;;;;;2.50;0.98;;;;;;;16.78;59.37;101242.69;10462551;28;20045;-72
2022/10/06 10:50:53;;;;;;;3.33;0.80;;;;;;;16.37;61.83;101243.25;10462413;28;20067;-72
2022/10/06 10:55:55;;;;;;;2.92;0.65;;;;;;;16.12;62.10;101250.38;10462037;28;20040;-72
2022/10/06 11:01:12;;;;;;;2.72;0.88;;;;;;;16.89;62.40;101251.94;10460301;28;20064;-73
2022/10/06 11:06:45;;;;;;;2.88;0.68;;;;;;;17.94;58.61;101253.06;10462244;28;20063;-72
2022/10/06 11:11:59;;;;;;;4.57;0.95;;;;;;;18.26;54.48;101260.50;10464597;28;20463;-73
2022/10/06 11:17:16;;;;;;;2.88;0.90;;;;;;;18.16;55.83;101253.84;10463427;28;20041;-72
2022/10/06 11:22:33;;;;;;;3.47;0.70;;;;;;;17.57;56.44;101252.75;10460601;28;20041;-73
2022/10/06 11:27:35;;;;;;;2.78;1.00;;;;;;;17.46;56.54;101254.16;10460689;28;20118;-73
2022/10/06 11:32:42;;;;;;;3.40;1.10;;;;;;;17.74;55.72;101252.09;10459778;28;20491;-74
2022/10/06 11:37:59;;;;;;;4.20;0.80;;;;;;;18.37;50.33;101252.03;10460011;28;20045;-73
2022/10/06 11:43:07;;;;;;;2.72;0.80;;;;;;;18.12;53.21;101262.91;10459263;28;20049;-72
2022/10/06 11:48:17;;;;;;;2.35;0.80;;;;;;;18.06;52.92;101256.06;10459922;28;20041;-72
2022/10/06 11:53:31;;;;;;;3.67;0.77;;;;;;;17.86;53.57;101266.69;10459529;28;20037;-72
2022/10/06 11:58:55;;;;;;;6.45;1.13;;;;;;;17.45;51.55;101265.72;10459812;28;20148;-72
2022/10/06 12:04:08;;;;;;;2.78;0.88;;;;;;;17.67;53.23;101260.38;10458997;28;20521;-72
2022/10/06 12:09:22;;;;;;;3.60;0.73;;;;;;;17.85;50.68;101263.16;10459960;28;20410;-72
2022/10/06 12:14:43;;;;;;;3.05;1.00;;;;;;;18.08;49.34;101261.31;10459730;28;20132;-73
2022/10/06 12:20:13;;;;;;;3.40;0.95;;;;;;;18.10;48.78;101262.09;10457767;28;20049;-73
2022/10/06 12:25:26;;;;;;;3.22;0.90;;;;;;;17.99;49.24;101259.91;10458090;28;20051;-73
2022/10/06 12:30:47;;;;;;;4.00;0.80;;;;;;;17.28;50.01;101253.97;10458994;28;20065;-73
2022/10/06 12:36:00;;;;;;;5.50;0.85;;;;;;;17.13;49.54;101259.88;10456976;28;20091;-73
2022/10/06 12:41:02;;;;;;;4.00;0.93;;;;;;;17.03;52.29;101266.47;10459122;28;20441;-74
2022/10/06 12:46:15;;;;;;;2.40;0.70;;;;;;;16.80;51.93;101260.28;10460742;28;20453;-73
2022/10/06 12:51:33;;;;;;;3.15;1.05;;;;;;;16.91;52.41;101254.56;10459305;28;20044;-73
2022/10/06 12:56:55;;;;;;;4.38;1.00;;;;;;;16.76;51.56;101255.13;10457750;28;20041;-72
2022/10/06 13:02:06;;;;;;;3.92;0.95;;;;;;;16.77;52.02;101255.06;10457307;28;20048;-73
2022/10/06 13:07:17;;;;;;;2.70;0.70;;;;;;;17.00;52.07;101262.19;10457646;28;20037;-72
2022/10/06 13:12:19;;;;;;;5.07;1.20;;;;;;;16.95;51.89;101258.81;10458767;28;20041;-72
2022/10/06 13:17:20;;;;;;;3.47;0.85;;;;;;;17.07;50.50;101258.34;10457764;28;20055;-73
2022/10/06 13:22:22;;;;;;;4.50;0.98;;;;;;;17.15;51.73;101261.56;10459192;28;20045;-73
2022/10/06 13:27:24;;;;;;;5.15;1.60;;;;;;;16.87;51.89;101263.56;10456466;28;20045;-73
2022/10/06 13:32:25;;;;;;;4.88;0.90;;;;;;;16.86;51.94;101269.78;10457562;28;20091;-72
2022/10/06 13:37:27;;;;;;;6.80;1.23;;;;;;;16.69;51.85;101270.41;10457006;28;20053;-72
2022/10/06 13:42:28;;;;;;;4.25;1.10;;;;;;;16.81;52.51;101269.09;10456598;28;20072;-72
2022/10/06 13:47:31;;;;;;;6.25;1.10;;;;;;;16.75;52.00;101274.66;10464010;28;20174;-71
2022/10/06 13:52:33;;;;;;;3.80;0.88;;;;;;;16.93;50.94;101276.59;10464636;28;20033;-72
2022/10/06 13:57:37;;;;;;;2.92;0.90;;;;;;;16.52;50.65;101289.63;10463996;28;20048;-71
2022/10/06 14:02:41;;;;;;;4.65;1.02;;;;;;;16.68;51.05;101291.69;10464557;28;20041;-72
2022/10/06 14:07:43;;;;;;;3.28;0.98;;;;;;;16.78;50.30;101282.50;10463485;28;20513;-72
2022/10/06 14:12:46;;;;;;;4.35;1.00;;;;;;;16.88;50.16;101290.06;10463432;28;20037;-72
2022/10/06 14:17:57;;;;;;;4.90;1.30;;;;;;;16.75;51.07;101285.28;10463519;28;20536;-72
2022/10/06 14:22:59;;;;;;;4.28;1.00;;;;;;;16.50;50.53;101291.44;10465583;28;20067;-72
2022/10/06 14:28:00;;;;;;;4.15;1.17;;;;;;;16.64;50.05;101289.16;10466687;28;20059;-72
2022/10/06 14:33:02;;;;;;;2.40;0.85;;;;;;;16.51;49.27;101287.00;10462392;28;20047;-72
2022/10/06 14:38:04;;;;;;;5.47;1.45;;;;;;;16.53;49.97;101280.72;10461935;28;20049;-71
2022/10/06 14:43:05;;;;;;;3.47;1.00;;;;;;;16.39;50.35;101288.31;10461889;28;20061;-71
2022/10/06 14:48:08;;;;;;;5.43;1.20;;;;;;;16.49;50.61;101291.50;10461895;28;20037;-71
2022/10/06 14:53:12;;;;;;;4.70;0.98;;;;;;;16.31;51.62;101293.03;10461993;28;20111;-70
2022/10/06 14:58:14;;;;;;;4.43;1.00;;;;;;;16.02;51.28;101294.91;10460166;28;20037;-70
2022/10/06 15:03:15;;;;;;;2.50;1.00;;;;;;;16.17;51.04;101295.31;10461337;28;20048;-70
2022/10/06 15:08:17;;;;;;;3.25;1.02;;;;;;;16.01;50.62;101295.81;10461345;28;20072;-70
2022/10/06 15:13:19;;;;;;;2.65;1.00;;;;;;;16.06;51.60;101290.34;10459227;28;20456;-70
2022/10/06 15:18:21;;;;;;;2.75;1.13;;;;;;;15.87;52.14;101298.94;10460631;28;20449;-70
2022/10/06 15:23:22;;;;;;;3.90;1.35;;;;;;;16.15;50.95;101305.94;10460136;28;20064;-70
2022/10/06 15:33:44;;;;;;;3.47;1.38;;;;;;;15.68;53.32;101307.56;10461015;28;20045;-71
2022/10/06 15:38:51;;;;;;;3.63;1.33;;;;;;;15.39;55.09;101298.72;10460458;28;20405;-71
2022/10/06 15:43:56;;;;;;;4.35;1.50;;;;;;;15.18;55.94;101307.34;10458866;28;20111;-67
2022/10/06 15:49:00;;;;;;;4.13;1.30;;;;;;;15.07;56.71;101305.88;10460374;28;20052;-68
2022/10/06 15:54:03;;;;;;;2.90;1.42;;;;;;;15.12;57.89;101308.41;10459138;28;20490;-70
2022/10/06 15:59:05;;;;;;;4.65;1.73;;;;;;;14.87;59.55;101300.31;10459163;28;20045;-70
2022/10/06 16:04:23;;;;;;;3.97;1.55;;;;;;;14.66;60.14;101306.25;10513534;22;20399;-72
2022/10/06 16:09:28;;;;;;;4.55;1.40;;;;;;;14.43;62.33;101309.47;10583232;28;20115;-72
2022/10/06 16:14:30;;;;;;;2.88;1.10;;;;;;;14.27;62.48;101307.25;10565212;28;20048;-72
2022/10/06 16:19:32;;;;;;;2.90;1.17;;;;;;;14.07;63.37;101313.06;10583226;28;20039;-72
2022/10/06 16:24:34;;;;;;;5.47;1.50;;;;;;;13.93;64.11;101315.19;10582988;28;20043;-73
2022/10/06 16:29:35;;;;;;;3.47;1.20;;;;;;;13.78;65.07;101318.22;10582947;28;20460;-72
2022/10/06 16:34:37;;;;;;;10.48;4.30;;;;;;;13.61;67.08;101311.56;10583242;28;20047;-72
2022/10/06 16:39:38;;;;;;;4.68;1.80;;;;;;;13.39;68.56;101318.25;10582010;28;20063;-72
2022/10/06 16:44:40;;;;;;;4.50;2.30;;;;;;;13.21;69.60;101322.16;10582842;28;20039;-73
2022/10/06 16:49:42;;;;;;;4.43;2.30;;;;;;;12.97;70.14;101327.94;10583032;28;20047;-73
2022/10/06 16:54:43;;;;;;;3.28;1.70;;;;;;;12.84;70.87;101335.28;10582330;28;20542;-73
2022/10/06 16:59:45;;;;;;;4.07;1.92;;;;;;;12.68;71.69;101336.47;10564199;28;20043;-73
2022/10/06 17:04:47;;;;;;;6.10;3.20;;;;;;;12.48;73.67;101348.25;10621545;28;20058;-73
2022/10/06 17:09:49;;;;;;;4.43;2.67;;;;;;;12.49;74.73;101354.44;10625201;28;20091;-73
2022/10/06 17:15:10;;;;;;;5.20;2.40;;;;;;;12.35;74.93;101373.09;10610971;28;20478;-73
2022/10/06 17:20:14;;;;;;;6.43;3.08;;;;;;;12.18;75.40;101357.59;10630333;27;20039;-73
2022/10/06 17:25:16;;;;;;;5.40;2.75;;;;;;;12.02;76.68;101364.03;10633655;27;20080;-73
2022/10/06 17:30:17;;;;;;;5.22;3.28;;;;;;;11.89;76.75;101363.34;10634523;27;20480;-73
2022/10/06 17:35:19;;;;;;;6.18;3.70;;;;;;;11.72;77.51;101367.97;10616466;27;20059;-74
2022/10/06 17:40:21;;;;;;;6.20;4.32;;;;;;;11.58;78.77;101370.81;10635569;27;20131;-74
2022/10/06 17:45:23;;;;;;;5.75;4.15;;;;;;;11.53;79.33;101364.75;10633699;27;20051;-74
2022/10/06 17:50:25;;;;;;;6.13;4.68;;;;;;;11.41;79.57;101364.91;10634439;27;20035;-74
2022/10/06 17:55:26;;;;;;;5.68;4.30;;;;;;;11.40;79.03;101369.31;10633742;27;20043;-74
2022/10/06 18:00:30;;;;;;;5.90;3.72;;;;;;;11.33;79.60;101367.66;10614943;27;20404;-74
2022/10/06 18:05:32;;;;;;;6.13;3.35;;;;;;;11.18;80.51;101362.59;10597649;27;20424;-73
2022/10/06 18:16:00;;;;;;;9.80;4.05;;;;;;;11.04;80.81;101374.16;10632911;27;20043;-75
2022/10/06 18:21:02;;;;;;;5.50;4.05;;;;;;;10.96;81.52;101367.25;10614096;27;20122;-75
2022/10/06 18:26:05;;;;;;;4.90;2.97;;;;;;;10.86;81.97;101362.13;10614197;27;20092;-74
2022/10/06 18:31:08;;;;;;;5.30;2.40;;;;;;;10.80;82.84;101361.28;10631152;27;20039;-74
2022/10/06 18:36:10;;;;;;;5.47;2.72;;;;;;;10.72;83.24;101360.53;10632168;27;20458;-74
2022/10/06 18:41:18;;;;;;;5.88;2.70;;;;;;;10.66;84.06;101361.44;10630828;27;20484;-73
2022/10/06 18:51:49;;;;;;;5.45;2.17;;;;;;;10.58;83.75;101372.06;10630580;27;20373;-74
2022/10/06 18:56:56;;;;;;;5.35;2.65;;;;;;;10.49;83.93;101377.44;10630590;27;20046;-74
2022/10/06 19:01:59;;;;;;;6.40;2.65;;;;;;;10.40;84.75;101381.88;10612492;27;20488;-74
2022/10/06 19:07:01;;;;;;;5.68;3.42;;;;;;;10.37;84.82;101384.56;10611404;27;20078;-74
2022/10/06 19:12:02;;;;;;;5.10;2.92;;;;;;;10.26;85.64;101385.50;10612002;27;20035;-74
2022/10/06 19:17:11;;;;;;;6.55;3.67;;;;;;;10.27;86.05;101389.91;10630020;27;20412;-74
2022/10/06 19:22:13;;;;;;;7.45;5.03;;;;;;;10.12;87.16;101389.97;10631137;27;20530;-74
2022/10/06 19:27:22;;;;;;;6.50;4.05;;;;;;;10.24;87.11;101389.03;10629064;27;20446;-73
2022/10/06 19:32:27;;;;;;;5.43;3.83;;;;;;;10.27;87.98;101391.63;10610340;27;20047;-74
2022/10/06 19:37:30;;;;;;;5.45;4.57;;;;;;;10.02;87.43;101396.22;10627357;27;20100;-72
2022/10/06 19:42:46;;;;;;;6.07;5.47;;;;;;;10.00;88.30;101395.31;10627323;27;20039;-73
2022/10/06 19:47:48;;;;;;;6.80;5.78;;;;;;;9.76;88.86;101393.75;10626997;27;20082;-73
2022/10/06 19:52:50;;;;;;;9.82;5.68;;;;;;;9.86;89.78;101396.31;10627189;27;20487;-73
2022/10/06 19:57:52;;;;;;;7.50;5.70;;;;;;;9.83;89.14;101400.72;10626737;27;20050;-73
2022/10/06 20:02:53;;;;;;;15.75;5.72;;;;;;;9.80;91.14;101400.75;10626748;27;20062;-74
2022/10/06 20:07:55;;;;;;;7.63;5.28;;;;;;;9.77;90.74;101406.00;10627355;27;20395;-74
2022/10/06 20:12:57;;;;;;;8.43;5.13;;;;;;;9.56;91.98;101405.28;10626031;27;20039;-73
2022/10/06 20:17:59;;;;;;;6.45;4.72;;;;;;;9.54;91.17;101406.16;10607783;27;20062;-73
2022/10/06 20:23:00;;;;;;;7.55;5.03;;;;;;;9.41;90.86;101410.59;10626573;27;20045;-73
2022/10/06 20:28:02;;;;;;;6.35;5.20;;;;;;;9.40;91.08;101411.47;10626614;27;20039;-74
2022/10/06 20:33:10;;;;;;;5.97;4.57;;;;;;;9.37;91.50;101405.38;10628190;27;20092;-74
2022/10/06 20:38:12;;;;;;;6.68;5.05;;;;;;;9.41;91.63;101414.97;10609012;27;20062;-73
2022/10/06 20:43:14;;;;;;;8.45;5.18;;;;;;;9.48;92.16;101411.44;10625479;27;20458;-72
2022/10/06 20:48:15;;;;;;;6.80;5.07;;;;;;;9.55;91.35;101413.13;10606683;27;20050;-70
2022/10/06 20:53:17;;;;;;;6.95;4.72;;;;;;;9.24;92.04;101420.28;10607609;27;20035;-71
2022/10/06 20:58:19;;;;;;;7.85;4.97;;;;;;;8.94;92.47;101411.66;10606544;27;20043;-70
2022/10/06 21:03:20;;;;;;;6.57;5.00;;;;;;;9.02;94.03;101409.88;10624662;28;20039;-70
2022/10/06 21:08:22;;;;;;;8.10;4.40;;;;;;;8.89;94.10;101413.41;10606677;28;20055;-70
2022/10/06 21:13:24;;;;;;;6.32;4.60;;;;;;;8.74;95.49;101413.47;10624343;28;20039;-70
2022/10/06 21:18:26;;;;;;;8.98;5.43;;;;;;;8.93;95.36;101404.66;10624073;28;20039;-70
2022/10/06 21:23:30;;;;;;;9.13;5.60;;;;;;;8.70;95.92;101399.47;10606038;28;20039;-70
2022/10/06 21:28:33;;;;;;;8.00;4.63;;;;;;;8.55;96.18;101403.00;10624618;28;20039;-70
2022/10/06 21:33:40;;;;;;;7.78;4.90;;;;;;;8.50;95.47;101396.00;10624661;28;20043;-70
2022/10/06 21:38:44;;;;;;;9.52;5.25;;;;;;;8.58;95.39;101389.88;10624076;28;20100;-70
2022/10/06 21:43:45;;;;;;;9.73;5.30;;;;;;;8.63;96.50;101396.88;10624531;28;20505;-70
2022/10/06 21:48:52;;;;;;;6.55;5.00;;;;;;;8.40;96.23;101381.19;10605692;28;20062;-70
2022/10/06 21:53:57;;;;;;;8.63;5.43;;;;;;;8.54;95.56;101390.78;10623653;28;20043;-70
2022/10/06 21:58:59;;;;;;;5.82;4.95;;;;;;;8.31;95.81;101384.66;10623551;28;20288;-70
2022/10/06 22:04:01;;;;;;;5.15;4.65;;;;;;;8.22;96.31;101387.28;10613400;22;20520;-75
2022/10/06 22:09:05;;;;;;;9.90;4.90;;;;;;;8.34;95.07;101385.53;10568388;28;20057;-75
2022/10/06 22:14:10;;;;;;;6.95;4.72;;;;;;;8.30;95.37;101388.16;10588458;28;20377;-75
2022/10/06 22:19:13;;;;;;;6.35;4.90;;;;;;;8.15;95.25;101385.56;10570009;28;20048;-75
2022/10/06 22:24:18;;;;;;;8.85;4.75;;;;;;;7.96;95.44;101390.78;10569431;28;20488;-75
2022/10/06 22:29:20;;;;;;;7.05;5.25;;;;;;;7.91;95.21;101383.78;10571340;28;20394;-75
2022/10/06 22:34:21;;;;;;;5.07;4.03;;;;;;;7.81;95.11;101380.31;10569359;28;20039;-75
2022/10/06 22:39:23;;;;;;;5.85;4.18;;;;;;;8.01;95.53;101390.78;10587212;28;20051;-74
2022/10/06 22:44:25;;;;;;;6.93;4.72;;;;;;;7.78;95.71;101382.91;10568630;28;20043;-74
2022/10/06 22:49:26;;;;;;;6.95;4.95;;;;;;;7.95;96.31;101381.16;10568821;28;20473;-74
2022/10/06 22:54:28;;;;;;;6.78;4.68;;;;;;;8.06;93.80;101378.56;10586873;28;20071;-75
2022/10/06 22:59:30;;;;;;;7.38;4.80;;;;;;;7.69;96.50;101362.81;10568385;28;20043;-74
2022/10/06 23:04:32;;;;;;;7.47;5.35;;;;;;;7.62;96.53;101374.19;10587297;28;20412;-75
2022/10/06 23:09:35;;;;;;;9.98;5.15;;;;;;;7.64;97.62;101366.31;10568199;28;20055;-74
2022/10/06 23:14:37;;;;;;;7.63;4.90;;;;;;;7.38;97.88;101369.75;10568252;28;20058;-75
2022/10/06 23:19:38;;;;;;;6.75;4.68;;;;;;;7.51;98.71;101365.41;10585364;28;20052;-75
2022/10/06 23:24:40;;;;;;;4.65;3.92;;;;;;;7.31;99.54;101368.88;10567788;28;20035;-75
2022/10/06 23:29:41;;;;;;;4.97;3.85;;;;;;;7.43;99.84;101367.13;10585276;28;20116;-75
2022/10/06 23:34:43;;;;;;;8.13;4.55;;;;;;;7.33;99.57;101371.47;10585505;28;20481;-74
2022/10/06 23:39:45;;;;;;;10.63;3.65;;;;;;;7.52;96.93;101359.31;10585164;28;20097;-74
2022/10/06 23:44:46;;;;;;;5.43;3.38;;;;;;;7.26;97.52;101369.69;10585627;28;20055;-74
2022/10/06 23:49:48;;;;;;;6.05;4.10;;;;;;;7.22;97.63;101370.59;10586137;28;20046;-74
2022/10/06 23:54:49;;;;;;;6.18;4.60;;;;;;;7.07;98.96;101361.78;10585950;28;20500;-74